createdAt,value
2023-05-11T00:01:25.844Z,97841.91
2023-05-11T00:03:54.428Z,97831.00
2023-05-11T00:06:24.187Z,97836.69
2023-05-11T00:08:52.585Z,97817.38
2023-05-11T00:11:21.343Z,97824.50
2023-05-11T00:13:49.742Z,97833.91
2023-05-11T00:16:18.044Z,97839.34
2023-05-11T00:18:49.317Z,97839.34
2023-05-11T00:21:17.523Z,97826.28
2023-05-11T00:23:47.147Z,97833.03
2023-05-11T00:26:15.182Z,97832.81
2023-05-11T00:28:43.341Z,97829.59
2023-05-11T00:31:11.506Z,97823.56
2023-05-11T00:33:39.874Z,97828.19
2023-05-11T00:36:09.472Z,97820.53
2023-05-11T00:38:41.422Z,97821.34
2023-05-11T00:41:11.135Z,97797.88
2023-05-11T00:43:39.615Z,97824.66
2023-05-11T00:46:08.480Z,97808.84
2023-05-11T00:48:37.621Z,97796.69
2023-05-11T00:51:07.099Z,97814.94
2023-05-11T00:53:35.533Z,97808.84
2023-05-11T00:56:05.171Z,97816.47
2023-05-11T00:58:34.973Z,97813.16
2023-05-11T01:01:03.458Z,97803.59
2023-05-11T01:03:31.909Z,97782.75
2023-05-11T01:06:09.633Z,97781.28
2023-05-11T01:08:43.626Z,97795.50
2023-05-11T01:11:19.417Z,97813.53
2023-05-11T01:13:54.703Z,97812.63
2023-05-11T01:16:25.292Z,97816.19
2023-05-11T01:18:58.075Z,97819.78
2023-05-11T01:21:31.534Z,97813.25
2023-05-11T01:24:22.726Z,97822.38
2023-05-11T01:27:01.576Z,97817.22
2023-05-11T01:30:06.887Z,97821.75
2023-05-11T01:32:41.824Z,97809.84
2023-05-11T01:35:13.616Z,97814.28
2023-05-11T01:37:47.209Z,97823.69
2023-05-11T01:40:18.381Z,97816.13
2023-05-11T01:42:51.302Z,97810.59
2023-05-11T01:45:21.026Z,97814.19
2023-05-11T01:47:52.676Z,97811.81
2023-05-11T01:50:24.539Z,97820.38
2023-05-11T01:52:54.554Z,97800.13
2023-05-11T01:55:25.089Z,97820.44
2023-05-11T01:57:55.929Z,97799.47
2023-05-11T02:00:26.574Z,97798.75
2023-05-11T02:02:58.055Z,97815.41
2023-05-11T02:05:28.369Z,97799.69
2023-05-11T02:07:58.021Z,97798.69
2023-05-11T02:10:28.590Z,97801.72
2023-05-11T02:12:57.794Z,97810.72
2023-05-11T02:15:27.848Z,97814.66
2023-05-11T02:17:58.571Z,97809.88
2023-05-11T02:20:28.192Z,97812.59
2023-05-11T02:22:57.914Z,97780.59
2023-05-11T02:25:27.054Z,97813.47
2023-05-11T02:27:55.939Z,97806.69
2023-05-11T02:30:25.525Z,97800.88
2023-05-11T02:32:56.624Z,97801.06
2023-05-11T02:35:30.231Z,97807.53
2023-05-11T02:38:01.685Z,97805.94
2023-05-11T02:40:33.508Z,97807.66
2023-05-11T02:43:09.001Z,97803.34
2023-05-11T02:45:38.709Z,97794.22
2023-05-11T02:48:11.225Z,97803.34
2023-05-11T02:50:43.203Z,97809.41
2023-05-11T02:53:16.564Z,97798.28
2023-05-11T02:55:45.252Z,97816.06
2023-05-11T02:58:13.678Z,97811.53
2023-05-11T03:00:42.135Z,97805.81
2023-05-11T03:03:10.548Z,97803.41
2023-05-11T03:05:40.543Z,97779.06
2023-05-11T03:08:09.285Z,97778.16
2023-05-11T03:10:38.008Z,97800.13
2023-05-11T03:13:08.256Z,97799.94
2023-05-11T03:15:38.336Z,97801.72
2023-05-11T03:18:08.445Z,97809.44
2023-05-11T03:20:39.293Z,97806.84
2023-05-11T03:23:10.370Z,97764.72
2023-05-11T03:25:39.648Z,97806.84
2023-05-11T03:28:10.615Z,97804.25
2023-05-11T03:30:40.962Z,97782.41
2023-05-11T03:33:09.331Z,97803.59
2023-05-11T03:35:38.844Z,97794.31
2023-05-11T03:38:16.545Z,97799.28
2023-05-11T03:40:46.155Z,97781.03
2023-05-11T03:43:17.706Z,97801.41
2023-05-11T03:45:47.420Z,97793.06
2023-05-11T03:48:17.214Z,97804.09
2023-05-11T03:50:47.429Z,97806.75
2023-05-11T03:53:17.668Z,97797.47
2023-05-11T03:55:46.385Z,97806.84
2023-05-11T03:58:14.881Z,97798.47
2023-05-11T04:00:44.181Z,97797.47
2023-05-11T04:03:13.221Z,97795.91
2023-05-11T04:05:42.540Z,97785.31
2023-05-11T04:08:11.203Z,97792.69
2023-05-11T04:10:42.028Z,97799.75
2023-05-11T04:13:10.258Z,97788.66
2023-05-11T04:15:38.835Z,97791.31
2023-05-11T04:18:07.008Z,97786.16
2023-05-11T04:20:35.398Z,97786.34
2023-05-11T04:23:04.227Z,97780.25
2023-05-11T04:25:32.686Z,97788.66
2023-05-11T04:28:02.350Z,97786.34
2023-05-11T04:30:30.559Z,97794.75
2023-05-11T04:32:59.204Z,97793.03
2023-05-11T04:35:27.486Z,97778.44
2023-05-11T04:37:59.547Z,97788.00
2023-05-11T04:40:28.035Z,97771.97
2023-05-11T04:42:57.695Z,97738.91
2023-05-11T04:45:28.263Z,97793.06
2023-05-11T04:47:56.497Z,97795.16
2023-05-11T04:50:24.770Z,97796.69
2023-05-11T04:52:53.301Z,97797.47
2023-05-11T04:55:21.683Z,97792.94
2023-05-11T04:57:50.260Z,97787.81
2023-05-11T05:00:19.273Z,97794.16
2023-05-11T05:02:50.889Z,97797.88
2023-05-11T05:05:19.592Z,97791.25
2023-05-11T05:07:48.101Z,97798.97
2023-05-11T05:10:16.540Z,97799.56
2023-05-11T05:12:46.016Z,97776.94
2023-05-11T05:15:14.809Z,97782.91
2023-05-11T05:17:43.374Z,97779.44
2023-05-11T05:20:13.440Z,97799.78
2023-05-11T05:22:41.884Z,97787.22
2023-05-11T05:25:11.871Z,97805.19
2023-05-11T05:27:39.894Z,97805.09
2023-05-11T05:30:09.108Z,97806.13
2023-05-11T05:32:37.780Z,97803.50
2023-05-11T05:35:07.024Z,97805.38
2023-05-11T05:37:37.865Z,97796.09
2023-05-11T05:40:07.852Z,97817.81
2023-05-11T05:42:36.327Z,97819.69
2023-05-11T05:45:04.826Z,97809.69
2023-05-11T05:47:33.432Z,97825.97
2023-05-11T05:50:01.486Z,97826.13
2023-05-11T05:52:30.769Z,97777.38
2023-05-11T05:55:00.922Z,97825.09
2023-05-11T05:57:30.805Z,97827.38
2023-05-11T05:59:59.250Z,97827.56
2023-05-11T06:02:27.413Z,97813.72
2023-05-11T06:04:56.098Z,97819.56
2023-05-11T06:07:24.316Z,97826.31
2023-05-11T06:09:52.846Z,97829.94
2023-05-11T06:12:22.357Z,97795.28
2023-05-11T06:14:51.124Z,97795.28
2023-05-11T06:17:20.540Z,97827.19
2023-05-11T06:19:50.409Z,97802.88
2023-05-11T06:22:18.634Z,97824.41
2023-05-11T06:24:46.984Z,97807.44
2023-05-11T06:27:17.935Z,97825.78
2023-05-11T06:29:48.483Z,97826.00
2023-05-11T06:32:16.904Z,97815.03
2023-05-11T06:34:45.302Z,97822.28
2023-05-11T06:37:16.293Z,97807.31
2023-05-11T06:39:44.903Z,97809.78
2023-05-11T06:42:13.147Z,97821.25
2023-05-11T06:44:41.691Z,97830.56
2023-05-11T06:47:12.223Z,97816.78
2023-05-11T06:49:41.546Z,97815.47
2023-05-11T06:52:10.072Z,97792.47
2023-05-11T06:54:38.185Z,97816.78
2023-05-11T06:57:07.808Z,97820.38
2023-05-11T06:59:36.049Z,97817.16
2023-05-11T07:02:04.178Z,97818.59
2023-05-11T07:04:34.042Z,97825.84
2023-05-11T07:07:02.714Z,97806.84
2023-05-11T07:09:31.477Z,97806.13
2023-05-11T07:11:59.803Z,97807.00
2023-05-11T07:14:27.918Z,97816.66
2023-05-11T07:16:56.295Z,97820.91
2023-05-11T07:19:25.360Z,97830.56
2023-05-11T07:21:55.704Z,97828.78
2023-05-11T07:24:24.133Z,97827.00
2023-05-11T07:26:52.449Z,97828.13
2023-05-11T07:29:21.284Z,97823.09
2023-05-11T07:31:49.576Z,97801.03
2023-05-11T07:34:18.045Z,97808.41
2023-05-11T07:36:46.913Z,97825.88
2023-05-11T07:39:18.431Z,97814.50
2023-05-11T07:41:47.524Z,97831.13
2023-05-11T07:44:16.026Z,97838.47
2023-05-11T07:46:44.233Z,97834.63
2023-05-11T07:49:17.284Z,97836.69
2023-05-11T07:51:50.147Z,97814.28
2023-05-11T07:54:21.775Z,97819.53
2023-05-11T07:56:50.209Z,97837.16
2023-05-11T07:59:18.450Z,97836.56
2023-05-11T08:01:46.825Z,97829.94
2023-05-11T08:04:15.223Z,97810.66
2023-05-11T08:06:43.906Z,97801.53
2023-05-11T08:09:12.746Z,97826.72
2023-05-11T08:11:42.466Z,97805.72
2023-05-11T08:14:10.946Z,97813.97
2023-05-11T08:16:39.157Z,97827.44
2023-05-11T08:19:08.969Z,97828.53
2023-05-11T08:21:37.976Z,97836.00
2023-05-11T08:24:06.757Z,97836.50
2023-05-11T08:26:34.954Z,97820.28
2023-05-11T08:29:21.550Z,97819.06
2023-05-11T08:31:51.002Z,97821.66
2023-05-11T08:34:20.318Z,97836.81
2023-05-11T08:36:49.122Z,97842.31
2023-05-11T08:39:32.885Z,97839.56
2023-05-11T08:42:07.677Z,97832.22
2023-05-11T08:44:40.214Z,97832.22
2023-05-11T08:49:41.954Z,97838.28
2023-05-11T08:52:11.284Z,97826.41
2023-05-11T08:54:40.377Z,97818.16
2023-05-11T08:57:09.141Z,97821.56
2023-05-11T08:59:39.065Z,97829.00
2023-05-11T09:02:08.317Z,97818.06
2023-05-11T09:04:38.456Z,97824.38
2023-05-11T09:07:07.309Z,97832.63
2023-05-11T09:09:35.862Z,97822.59
2023-05-11T09:12:04.119Z,97817.25
2023-05-11T09:14:32.604Z,97839.03
2023-05-11T09:17:03.305Z,97831.78
2023-05-11T09:19:32.080Z,97832.13
2023-05-11T09:22:02.305Z,97818.38
2023-05-11T09:24:31.219Z,97816.09
2023-05-11T09:27:09.490Z,97831.66
2023-05-11T09:29:37.694Z,97829.00
2023-05-11T09:32:11.379Z,97794.25
2023-05-11T09:34:43.156Z,97819.50
2023-05-11T09:37:19.581Z,97805.56
2023-05-11T09:42:22.656Z,97827.91
2023-05-11T09:44:50.910Z,97826.91
2023-05-11T09:47:22.639Z,97820.91
2023-05-11T09:49:51.580Z,97808.31
2023-05-11T09:52:21.656Z,97827.22
2023-05-11T09:54:53.044Z,97825.75
2023-05-11T09:57:26.404Z,97818.63
2023-05-11T09:59:55.948Z,97827.91
2023-05-11T10:02:27.228Z,97829.66
2023-05-11T10:04:57.984Z,97813.03
2023-05-11T10:07:31.600Z,97820.03
2023-05-11T10:10:03.418Z,97823.19
2023-05-11T10:12:33.814Z,97819.59
2023-05-11T10:15:04.468Z,97809.88
2023-05-11T10:17:35.536Z,97816.28
2023-05-11T10:20:05.795Z,97787.56
2023-05-11T10:22:34.352Z,97813.84
2023-05-11T10:25:06.392Z,97809.44
2023-05-11T10:27:35.114Z,97806.09
2023-05-11T10:30:04.602Z,97801.03
2023-05-11T10:32:39.593Z,97804.63
2023-05-11T10:35:08.730Z,97801.00
2023-05-11T10:37:37.307Z,97747.34
2023-05-11T10:40:07.845Z,97802.84
2023-05-11T10:43:12.803Z,97798.06
2023-05-11T10:45:46.937Z,97799.25
2023-05-11T10:49:02.021Z,97793.03
2023-05-11T10:51:48.650Z,97788.84
2023-05-11T10:54:31.427Z,97790.44
2023-05-11T10:57:14.865Z,97783.94
2023-05-11T11:00:21.671Z,97788.28
2023-05-11T11:02:50.570Z,97784.03
2023-05-11T11:05:36.011Z,97790.00
2023-05-11T11:08:05.699Z,97782.38
2023-05-11T11:10:37.480Z,97793.22
2023-05-11T11:13:08.134Z,97790.53
2023-05-11T11:16:11.814Z,97786.06
2023-05-11T11:18:41.137Z,97788.63
2023-05-11T11:21:15.671Z,97787.63
2023-05-11T11:23:51.139Z,97767.81
2023-05-11T11:26:57.730Z,97794.09
2023-05-11T11:29:25.897Z,97802.38
2023-05-11T11:31:54.687Z,97771.34
2023-05-11T11:34:39.872Z,97790.41
2023-05-11T11:37:11.180Z,97785.06
2023-05-11T11:40:09.423Z,97795.38
2023-05-11T11:42:44.739Z,97796.91
2023-05-11T11:45:32.034Z,97783.28
2023-05-11T11:48:13.732Z,97800.19
2023-05-11T11:50:44.468Z,97806.06
2023-05-11T11:54:07.825Z,97755.75
2023-05-11T11:56:44.039Z,97791.75
2023-05-11T11:59:15.425Z,97795.28
2023-05-11T12:01:45.623Z,97789.91
2023-05-11T12:04:52.631Z,97794.03
2023-05-11T12:07:22.964Z,97795.38
2023-05-11T12:09:53.806Z,97785.56
2023-05-11T12:12:23.293Z,97800.75
2023-05-11T12:14:52.176Z,97792.25
2023-05-11T12:17:33.153Z,97803.34
2023-05-11T12:20:15.936Z,97807.00
2023-05-11T12:22:45.048Z,97794.66
2023-05-11T12:25:18.204Z,97804.72
2023-05-11T12:27:51.552Z,97812.25
2023-05-11T12:30:24.763Z,97814.72
2023-05-11T12:32:57.486Z,97817.66
2023-05-11T12:35:28.264Z,97810.09
2023-05-11T12:37:58.419Z,97822.06
2023-05-11T12:40:28.742Z,97811.75
2023-05-11T12:42:58.314Z,97807.88
2023-05-11T12:45:28.856Z,97804.84
2023-05-11T12:47:59.057Z,97806.53
2023-05-11T12:50:27.658Z,97773.59
2023-05-11T12:52:55.945Z,97767.47
2023-05-11T12:55:33.288Z,97808.16
2023-05-11T12:58:13.653Z,97799.63
2023-05-11T13:00:54.626Z,97800.25
2023-05-11T13:03:24.472Z,97803.72
2023-05-11T13:05:55.006Z,97761.66
2023-05-11T13:08:23.642Z,97795.19
2023-05-11T13:10:53.674Z,97787.47
2023-05-11T13:13:29.762Z,97798.47
2023-05-11T13:15:58.181Z,97793.78
2023-05-11T13:18:27.410Z,97789.00
2023-05-11T13:21:07.744Z,97756.66
2023-05-11T13:23:37.232Z,97775.88
2023-05-11T13:26:08.082Z,97774.53
2023-05-11T13:28:36.968Z,97760.22
2023-05-11T13:31:06.184Z,97791.00
2023-05-11T13:33:35.103Z,97787.47
2023-05-11T13:36:04.502Z,97775.75
2023-05-11T13:38:32.991Z,97778.25
2023-05-11T13:41:01.236Z,97788.34
2023-05-11T13:43:32.497Z,97786.97
2023-05-11T13:46:01.382Z,97782.88
2023-05-11T13:48:29.957Z,97774.19
2023-05-11T13:50:58.558Z,97780.53
2023-05-11T13:53:27.462Z,97786.00
2023-05-11T13:55:56.034Z,97777.63
2023-05-11T13:58:24.792Z,97776.72
2023-05-11T14:01:07.225Z,97779.19
2023-05-11T14:03:36.676Z,97754.66
2023-05-11T14:06:05.742Z,97781.06
2023-05-11T14:08:36.345Z,97771.06
2023-05-11T14:11:05.064Z,97771.97
2023-05-11T14:13:33.886Z,97739.91
2023-05-11T14:16:03.791Z,97767.22
2023-05-11T14:18:32.591Z,97766.69
2023-05-11T14:21:01.418Z,97770.66
2023-05-11T14:23:30.069Z,97761.13
2023-05-11T14:25:59.727Z,97768.75
2023-05-11T14:28:28.524Z,97756.88
2023-05-11T14:30:57.728Z,97773.47
2023-05-11T14:33:28.637Z,97755.69
2023-05-11T14:35:57.511Z,97765.53
2023-05-11T14:38:26.129Z,97767.41
2023-05-11T14:40:55.292Z,97731.00
2023-05-11T14:43:24.640Z,97749.47
2023-05-11T14:45:53.673Z,97756.19
2023-05-11T14:48:23.946Z,97754.72
2023-05-11T14:50:54.263Z,97749.75
2023-05-11T14:53:23.485Z,97731.28
2023-05-11T14:55:55.637Z,97756.84
2023-05-11T14:58:24.963Z,97735.50
2023-05-11T15:00:53.593Z,97737.16
2023-05-11T15:03:22.342Z,97757.41
2023-05-11T15:05:51.740Z,97748.69
2023-05-11T15:08:29.562Z,97747.22
2023-05-11T15:10:58.525Z,97754.75
2023-05-11T15:13:26.948Z,97750.66
2023-05-11T15:15:56.873Z,97755.59
2023-05-11T15:18:25.545Z,97747.44
2023-05-11T15:20:54.431Z,97754.97
2023-05-11T15:23:25.133Z,97720.09
2023-05-11T15:25:54.453Z,97759.91
2023-05-11T15:28:22.842Z,97727.88
2023-05-11T15:30:51.470Z,97736.50
2023-05-11T15:33:20.566Z,97756.66
2023-05-11T15:35:50.350Z,97749.91
2023-05-11T15:38:19.376Z,97754.22
2023-05-11T15:40:49.436Z,97741.03
2023-05-11T15:43:19.837Z,97737.75
2023-05-11T15:45:49.868Z,97764.84
2023-05-11T15:48:19.563Z,97770.75
2023-05-11T15:50:48.309Z,97770.81
2023-05-11T15:53:18.637Z,97771.97
2023-05-11T15:55:51.315Z,97762.78
2023-05-11T15:58:20.858Z,97763.38
2023-05-11T16:00:50.293Z,97766.00
2023-05-11T16:03:20.288Z,97770.00
2023-05-11T16:05:49.206Z,97749.63
2023-05-11T16:08:19.207Z,97777.59
2023-05-11T16:10:50.145Z,97778.56
2023-05-11T16:13:18.916Z,97773.50
2023-05-11T16:15:49.469Z,97773.28
2023-05-11T16:18:20.064Z,97775.91
2023-05-11T16:20:49.195Z,97773.81
2023-05-11T16:23:18.318Z,97771.28
2023-05-11T16:25:47.929Z,97728.63
2023-05-11T16:28:18.334Z,97745.28
2023-05-11T16:30:47.112Z,97757.88
2023-05-11T16:33:16.443Z,97707.56
2023-05-11T16:35:45.328Z,97745.44
2023-05-11T16:38:18.160Z,97717.81
2023-05-11T16:40:48.560Z,97759.25
2023-05-11T16:43:18.804Z,97766.38
2023-05-11T16:45:47.365Z,97760.47
2023-05-11T16:48:17.592Z,97779.53
2023-05-11T16:50:48.245Z,97782.81
2023-05-11T16:53:18.748Z,97796.09
2023-05-11T16:55:50.004Z,97775.69
2023-05-11T16:58:20.104Z,97785.63
2023-05-11T17:00:49.675Z,97794.78
2023-05-11T17:03:20.715Z,97805.84
2023-05-11T17:05:50.008Z,97809.03
2023-05-11T17:08:19.052Z,97806.47
2023-05-11T17:10:47.865Z,97797.78
2023-05-11T17:13:16.408Z,97802.16
2023-05-11T17:15:48.643Z,97783.22
2023-05-11T17:18:17.623Z,97815.31
2023-05-11T17:20:47.228Z,97803.72
2023-05-11T17:23:15.493Z,97800.44
2023-05-11T17:25:44.520Z,97820.81
2023-05-11T17:28:13.260Z,97808.91
2023-05-11T17:33:17.538Z,97809.66
2023-05-11T17:35:47.772Z,97820.91
2023-05-11T17:38:16.843Z,97816.56
2023-05-11T17:40:46.103Z,97825.94
2023-05-11T17:43:14.551Z,97825.13
2023-05-11T17:45:44.249Z,97835.41
2023-05-11T17:48:13.919Z,97836.16
2023-05-11T17:50:44.705Z,97824.22
2023-05-11T17:53:13.375Z,97829.25
2023-05-11T17:55:42.451Z,97831.03
2023-05-11T17:58:11.091Z,97833.66
2023-05-11T18:00:39.765Z,97833.66
2023-05-11T18:03:08.155Z,97815.19
2023-05-11T18:05:48.570Z,97830.28
2023-05-11T18:08:21.637Z,97829.63
2023-05-11T18:10:50.284Z,97843.13
2023-05-11T18:13:19.199Z,97820.63
2023-05-11T18:15:49.539Z,97819.94
2023-05-11T18:18:18.126Z,97808.19
2023-05-11T18:20:46.671Z,97857.16
2023-05-11T18:23:15.301Z,97845.34
2023-05-11T18:25:45.617Z,97847.00
2023-05-11T18:28:14.267Z,97841.16
2023-05-11T18:30:43.181Z,97822.69
2023-05-11T18:33:12.148Z,97835.22
2023-05-11T18:35:42.019Z,97860.59
2023-05-11T18:38:10.924Z,97844.75
2023-05-11T18:40:40.232Z,97862.50
2023-05-11T18:43:11.242Z,97858.38
2023-05-11T18:45:41.443Z,97863.59
2023-05-11T18:48:10.050Z,97864.59
2023-05-11T18:50:40.274Z,97867.28
2023-05-11T18:53:08.693Z,97862.34
2023-05-11T18:55:51.818Z,97870.06
2023-05-11T18:58:23.864Z,97859.88
2023-05-11T19:00:53.721Z,97871.91
2023-05-11T19:03:23.563Z,97882.03
2023-05-11T19:05:52.731Z,97858.47
2023-05-11T19:08:21.207Z,97866.03
2023-05-11T19:10:49.789Z,97873.81
2023-05-11T19:13:18.398Z,97878.84
2023-05-11T19:15:48.593Z,97889.78
2023-05-11T19:18:17.525Z,97892.47
2023-05-11T19:20:46.723Z,97892.66
2023-05-11T19:23:15.045Z,97899.59
2023-05-11T19:25:43.220Z,97876.19
2023-05-11T19:28:11.673Z,97887.53
2023-05-11T19:30:40.180Z,97876.75
2023-05-11T19:33:10.042Z,97889.41
2023-05-11T19:35:40.954Z,97896.19
2023-05-11T19:38:09.365Z,97894.38
2023-05-11T19:40:45.840Z,97893.75
2023-05-11T19:43:14.766Z,97896.22
2023-05-11T19:45:45.549Z,97895.31
2023-05-11T19:48:15.605Z,97897.97
2023-05-11T19:50:44.478Z,97897.72
2023-05-11T19:53:15.897Z,97906.25
2023-05-11T19:55:46.509Z,97907.19
2023-05-11T19:58:16.274Z,97880.19
2023-05-11T20:00:44.744Z,97907.31
2023-05-11T20:03:17.216Z,97867.69
2023-05-11T20:05:45.857Z,97909.88
2023-05-11T20:08:14.701Z,97915.06
2023-05-11T20:10:43.126Z,97901.59
2023-05-11T20:13:11.788Z,97907.50
2023-05-11T20:15:40.365Z,97895.63
2023-05-11T20:18:09.733Z,97900.03
2023-05-11T20:20:39.592Z,97905.94
2023-05-11T20:23:08.472Z,97903.41
2023-05-11T20:25:40.293Z,97886.47
2023-05-11T20:28:08.930Z,97892.38
2023-05-11T20:30:38.023Z,97901.69
2023-05-11T20:35:41.649Z,97895.88
2023-05-11T20:38:10.322Z,97913.69
2023-05-11T20:40:39.179Z,97908.56
2023-05-11T20:43:08.505Z,97908.56
2023-05-11T20:45:37.260Z,97888.25
2023-05-11T20:48:06.041Z,97908.56
2023-05-11T20:50:35.003Z,97871.56
2023-05-11T20:53:05.628Z,97899.34
2023-05-11T20:55:34.188Z,97912.28
2023-05-11T20:58:04.709Z,97830.22
2023-05-11T21:00:33.243Z,97897.75
2023-05-11T21:03:04.715Z,97906.94
2023-05-11T21:05:45.904Z,97909.56
2023-05-11T21:08:16.228Z,97878.28
2023-05-11T21:10:46.669Z,97905.25
2023-05-11T21:13:14.777Z,97904.47
2023-05-11T21:15:43.334Z,97883.41
2023-05-11T21:18:11.985Z,97876.56
2023-05-11T21:20:40.805Z,97890.16
2023-05-11T21:23:09.712Z,97884.25
2023-05-11T21:25:39.747Z,97871.63
2023-05-11T21:28:09.123Z,97895.13
2023-05-11T21:30:37.387Z,97878.28
2023-05-11T21:33:05.984Z,97881.75
2023-05-11T21:35:34.344Z,97903.69
2023-05-11T21:38:03.304Z,97899.59
2023-05-11T21:40:31.853Z,97887.66
2023-05-11T21:43:01.491Z,97875.03
2023-05-11T21:45:30.024Z,97886.91
2023-05-11T21:47:58.767Z,97869.97
2023-05-11T21:50:27.255Z,97885.25
2023-05-11T21:52:55.546Z,97899.44
2023-05-11T21:55:24.962Z,97897.72
2023-05-11T21:57:54.937Z,97899.44
2023-05-11T22:00:26.702Z,97903.00
2023-05-11T22:02:55.661Z,97894.75
2023-05-11T22:05:23.908Z,97908.97
2023-05-11T22:07:53.969Z,97905.41
2023-05-11T22:10:25.901Z,97896.03
2023-05-11T22:12:54.419Z,97866.78
2023-05-11T22:15:23.016Z,97871.03
2023-05-11T22:17:53.076Z,97906.38
2023-05-11T22:20:21.644Z,97898.75
2023-05-11T22:22:49.874Z,97901.31
2023-05-11T22:25:18.542Z,97903.00
2023-05-11T22:27:47.415Z,97878.66
2023-05-11T22:30:16.381Z,97904.00
2023-05-11T22:32:45.143Z,97907.28
2023-05-11T22:35:15.314Z,97912.44
2023-05-11T22:37:43.539Z,97912.50
2023-05-11T22:40:12.670Z,97903.88
2023-05-11T22:42:41.916Z,97905.50
2023-05-11T22:45:11.423Z,97910.72
2023-05-11T22:47:40.167Z,97896.41
2023-05-11T22:50:12.012Z,97901.63
2023-05-11T22:52:41.822Z,97894.91
2023-05-11T22:55:11.041Z,97912.50
2023-05-11T22:57:39.510Z,97909.84
2023-05-11T23:00:10.851Z,97898.94
2023-05-11T23:02:39.752Z,97901.50
2023-05-11T23:05:08.904Z,97904.03
2023-05-11T23:07:37.332Z,97908.22
2023-05-11T23:10:07.754Z,97905.84
2023-05-11T23:12:35.930Z,97899.97
2023-05-11T23:15:04.228Z,97907.44
2023-05-11T23:17:32.784Z,97910.03
2023-05-11T23:20:01.095Z,97904.16
2023-05-11T23:22:29.532Z,97909.06
2023-05-11T23:24:58.172Z,97909.97
2023-05-11T23:27:28.815Z,97886.25
2023-05-11T23:29:57.483Z,97903.22
2023-05-11T23:32:25.832Z,97861.09
2023-05-11T23:34:53.844Z,97910.09
2023-05-11T23:37:22.851Z,97873.75
2023-05-11T23:39:51.206Z,97899.00
2023-05-11T23:42:19.929Z,97873.00
2023-05-11T23:44:50.105Z,97903.31
2023-05-11T23:47:18.392Z,97890.75
2023-05-11T23:49:46.715Z,97882.13
2023-05-11T23:52:15.090Z,97894.81
2023-05-11T23:54:43.667Z,97894.75
2023-05-11T23:57:12.179Z,97899.97
2023-05-11T23:59:40.423Z,97899.19
